createdAt,value
2022-09-16T00:02:03.924Z,946.97
2022-09-16T00:04:30.247Z,947.06
2022-09-16T00:06:56.570Z,947.08
2022-09-16T00:09:22.927Z,947.06
2022-09-16T00:11:49.250Z,947.02
2022-09-16T00:14:15.584Z,946.98
2022-09-16T00:16:41.951Z,947.08
2022-09-16T00:19:08.267Z,947.11
2022-09-16T00:21:34.593Z,947.05
2022-09-16T00:24:00.959Z,947.11
2022-09-16T00:26:27.304Z,946.98
2022-09-16T00:28:53.630Z,946.99
2022-09-16T00:31:20.062Z,946.95
2022-09-16T00:33:46.324Z,946.98
2022-09-16T00:36:12.647Z,946.93
2022-09-16T00:38:38.985Z,946.93
2022-09-16T00:41:05.329Z,946.89
2022-09-16T00:43:31.679Z,946.95
2022-09-16T00:45:58.002Z,946.97
2022-09-16T00:48:24.330Z,946.94
2022-09-16T00:50:50.714Z,946.98
2022-09-16T00:53:17.035Z,946.97
2022-09-16T00:55:43.384Z,947.03
2022-09-16T00:58:09.714Z,947.06
2022-09-16T01:00:36.088Z,947.06
2022-09-16T01:03:02.363Z,947.07
2022-09-16T01:05:28.707Z,946.99
2022-09-16T01:07:55.042Z,947.06
2022-09-16T01:10:21.361Z,947.06
2022-09-16T01:12:47.714Z,947.13
2022-09-16T01:15:14.032Z,947.23
2022-09-16T01:17:40.380Z,947.27
2022-09-16T01:20:06.726Z,947.28
2022-09-16T01:22:33.051Z,947.16
2022-09-16T01:24:59.399Z,947.26
2022-09-16T01:27:25.725Z,947.17
2022-09-16T01:29:52.050Z,947.15
2022-09-16T01:32:18.412Z,947.17
2022-09-16T01:34:44.772Z,947.12
2022-09-16T01:37:11.073Z,947.12
2022-09-16T01:39:37.458Z,947.06
2022-09-16T01:42:03.772Z,946.99
2022-09-16T01:44:30.096Z,946.99
2022-09-16T01:46:56.489Z,947.03
2022-09-16T01:49:22.746Z,947.05
2022-09-16T01:51:49.092Z,947.13
2022-09-16T01:54:15.418Z,947.09
2022-09-16T01:56:41.754Z,947.16
2022-09-16T01:59:08.097Z,947.09
2022-09-16T02:01:34.514Z,947.15
2022-09-16T02:04:00.756Z,947.02
2022-09-16T02:06:27.079Z,946.99
2022-09-16T02:08:53.621Z,946.94
2022-09-16T02:11:19.760Z,946.99
2022-09-16T02:13:46.118Z,946.91
2022-09-16T02:16:12.607Z,946.83
2022-09-16T02:18:38.774Z,946.91
2022-09-16T02:21:05.147Z,946.94
2022-09-16T02:23:31.488Z,946.93
2022-09-16T02:25:57.822Z,946.90
2022-09-16T02:28:24.169Z,946.93
2022-09-16T02:30:50.530Z,947.01
2022-09-16T02:33:16.849Z,946.94
2022-09-16T02:35:43.188Z,946.99
2022-09-16T02:38:09.528Z,946.91
2022-09-16T02:40:35.868Z,946.92
2022-09-16T02:43:02.207Z,946.95
2022-09-16T02:45:28.521Z,947.03
2022-09-16T02:47:54.863Z,947.05
2022-09-16T02:50:21.186Z,946.96
2022-09-16T02:52:47.525Z,946.94
2022-09-16T02:55:13.886Z,946.93
2022-09-16T02:57:40.220Z,947.09
2022-09-16T03:00:06.554Z,947.17
2022-09-16T03:02:32.981Z,947.22
2022-09-16T03:04:59.266Z,947.23
2022-09-16T03:07:25.594Z,947.14
2022-09-16T03:09:51.966Z,947.26
2022-09-16T03:12:18.285Z,947.14
2022-09-16T03:14:44.602Z,947.25
2022-09-16T03:17:10.947Z,947.39
2022-09-16T03:19:37.266Z,947.42
2022-09-16T03:22:03.610Z,947.46
2022-09-16T03:24:29.964Z,947.58
2022-09-16T03:26:56.307Z,947.55
2022-09-16T03:29:22.620Z,947.44
2022-09-16T03:31:48.945Z,947.35
2022-09-16T03:34:15.282Z,947.26
2022-09-16T03:36:41.603Z,947.29
2022-09-16T03:39:07.944Z,947.37
2022-09-16T03:41:34.268Z,947.33
2022-09-16T03:44:04.036Z,947.28
2022-09-16T03:46:26.962Z,947.23
2022-09-16T03:48:53.269Z,947.14
2022-09-16T03:51:19.590Z,947.13
2022-09-16T03:53:45.909Z,947.04
2022-09-16T03:56:12.236Z,947.08
2022-09-16T03:58:38.610Z,947.13
2022-09-16T04:01:04.953Z,947.16
2022-09-16T04:03:33.309Z,947.23
2022-09-16T04:05:57.629Z,947.25
2022-09-16T04:08:23.944Z,947.37
2022-09-16T04:10:50.288Z,947.37
2022-09-16T04:13:16.610Z,947.43
2022-09-16T04:15:42.950Z,947.41
2022-09-16T04:18:09.254Z,947.47
2022-09-16T04:20:35.606Z,947.50
2022-09-16T04:23:01.939Z,947.54
2022-09-16T04:25:28.263Z,947.69
2022-09-16T04:27:54.607Z,947.64
2022-09-16T04:30:20.945Z,947.62
2022-09-16T04:32:47.278Z,947.57
2022-09-16T04:35:13.599Z,947.56
2022-09-16T04:37:39.922Z,947.67
2022-09-16T04:40:06.386Z,947.59
2022-09-16T04:42:32.602Z,947.55
2022-09-16T04:44:58.950Z,947.62
2022-09-16T04:47:25.284Z,947.61
2022-09-16T04:49:51.612Z,947.65
2022-09-16T04:52:17.971Z,947.79
2022-09-16T04:54:44.293Z,947.66
2022-09-16T04:57:10.639Z,947.74
2022-09-16T04:59:37.005Z,947.67
2022-09-16T05:02:03.318Z,947.68
2022-09-16T05:04:29.672Z,947.64
2022-09-16T05:06:56.026Z,947.62
2022-09-16T05:09:22.352Z,947.56
2022-09-16T05:11:48.670Z,947.47
2022-09-16T05:14:15.034Z,947.56
2022-09-16T05:16:41.367Z,947.46
2022-09-16T05:19:07.749Z,947.48
2022-09-16T05:21:34.159Z,947.48
2022-09-16T05:24:00.504Z,947.43
2022-09-16T05:26:26.818Z,947.44
2022-09-16T05:28:53.219Z,947.37
2022-09-16T05:31:19.685Z,947.39
2022-09-16T05:33:45.946Z,947.42
2022-09-16T05:36:12.280Z,947.40
2022-09-16T05:38:38.606Z,947.34
2022-09-16T05:41:04.943Z,947.40
2022-09-16T05:43:31.307Z,947.32
2022-09-16T05:45:57.697Z,947.35
2022-09-16T05:48:24.052Z,947.26
2022-09-16T05:50:50.388Z,947.32
2022-09-16T05:53:16.731Z,947.28
2022-09-16T05:55:43.101Z,947.27
2022-09-16T05:58:09.449Z,947.34
2022-09-16T06:00:35.801Z,947.31
2022-09-16T06:03:02.137Z,947.32
2022-09-16T06:05:28.453Z,947.33
2022-09-16T06:07:54.836Z,947.31
2022-09-16T06:10:21.150Z,947.37
2022-09-16T06:12:47.493Z,947.33
2022-09-16T06:15:13.832Z,947.32
2022-09-16T06:17:40.148Z,947.32
2022-09-16T06:20:06.535Z,947.28
2022-09-16T06:22:32.879Z,947.24
2022-09-16T06:24:59.212Z,947.25
2022-09-16T06:27:25.568Z,947.31
2022-09-16T06:29:51.888Z,947.26
2022-09-16T06:32:18.232Z,947.25
2022-09-16T06:34:44.602Z,947.22
2022-09-16T06:37:10.921Z,947.24
2022-09-16T06:39:37.303Z,947.25
2022-09-16T06:42:03.625Z,947.35
2022-09-16T06:44:29.945Z,947.27
2022-09-16T06:46:56.290Z,947.31
2022-09-16T06:49:22.623Z,947.31
2022-09-16T06:51:48.944Z,947.35
2022-09-16T06:54:15.290Z,947.35
2022-09-16T06:56:41.878Z,947.31
2022-09-16T06:59:07.959Z,947.32
2022-09-16T07:01:34.439Z,947.41
2022-09-16T07:04:00.663Z,947.40
2022-09-16T07:06:50.773Z,947.45
2022-09-16T07:08:53.365Z,947.46
2022-09-16T07:11:19.706Z,947.46
2022-09-16T07:13:46.041Z,947.48
2022-09-16T07:16:13.913Z,947.45
2022-09-16T07:18:38.721Z,947.47
2022-09-16T07:21:05.038Z,947.45
2022-09-16T07:23:31.492Z,947.40
2022-09-16T07:25:57.799Z,947.33
2022-09-16T07:28:24.140Z,947.31
2022-09-16T07:30:50.512Z,947.42
2022-09-16T07:33:16.825Z,947.36
2022-09-16T07:35:43.159Z,947.39
2022-09-16T07:38:09.486Z,947.42
2022-09-16T07:40:35.863Z,947.38
2022-09-16T07:43:02.173Z,947.22
2022-09-16T07:45:28.553Z,947.10
2022-09-16T07:47:54.836Z,947.10
2022-09-16T07:50:21.178Z,947.06
2022-09-16T07:52:47.528Z,947.08
2022-09-16T07:55:13.866Z,947.06
2022-09-16T07:57:40.211Z,947.11
2022-09-16T08:00:06.527Z,947.22
2022-09-16T08:02:32.866Z,947.08
2022-09-16T08:04:59.192Z,947.01
2022-09-16T08:07:25.518Z,947.05
2022-09-16T08:09:53.363Z,946.99
2022-09-16T08:12:18.206Z,947.02
2022-09-16T08:14:44.546Z,946.96
2022-09-16T08:17:10.881Z,947.00
2022-09-16T08:19:37.222Z,946.90
2022-09-16T08:22:03.540Z,946.89
2022-09-16T08:24:29.883Z,946.88
2022-09-16T08:29:22.549Z,946.82
2022-09-16T08:31:48.948Z,946.91
2022-09-16T08:34:15.211Z,946.84
2022-09-16T08:36:41.559Z,946.84
2022-09-16T08:39:07.900Z,946.85
2022-09-16T08:41:34.241Z,946.70
2022-09-16T08:44:00.591Z,946.69
2022-09-16T08:46:26.935Z,946.59
2022-09-16T08:48:53.271Z,946.62
2022-09-16T08:51:19.615Z,946.62
2022-09-16T08:53:45.953Z,946.67
2022-09-16T08:56:12.305Z,946.64
2022-09-16T08:58:38.621Z,946.62
2022-09-16T09:01:05.100Z,946.61
2022-09-16T09:03:31.328Z,946.53
2022-09-16T09:05:57.679Z,946.61
2022-09-16T09:08:23.993Z,946.54
2022-09-16T09:10:50.321Z,946.62
2022-09-16T09:13:17.741Z,946.58
2022-09-16T09:15:42.981Z,946.65
2022-09-16T09:18:11.753Z,946.70
2022-09-16T09:20:35.660Z,946.70
2022-09-16T09:23:02.013Z,946.71
2022-09-16T09:25:28.357Z,946.65
2022-09-16T09:27:54.687Z,946.59
2022-09-16T09:30:21.024Z,946.57
2022-09-16T09:32:49.740Z,946.56
2022-09-16T09:35:13.700Z,946.52
2022-09-16T09:37:40.061Z,946.54
2022-09-16T09:40:06.426Z,946.54
2022-09-16T09:42:32.691Z,946.56
2022-09-16T09:45:01.516Z,946.55
2022-09-16T09:47:25.394Z,946.59
2022-09-16T09:49:51.712Z,946.64
2022-09-16T09:52:18.033Z,946.66
2022-09-16T09:54:44.358Z,946.68
2022-09-16T09:57:10.921Z,946.65
2022-09-16T09:59:37.263Z,946.60
2022-09-16T10:02:03.678Z,946.77
2022-09-16T10:04:29.919Z,946.84
2022-09-16T10:06:56.315Z,946.93
2022-09-16T10:09:22.587Z,947.06
2022-09-16T10:11:48.902Z,947.17
2022-09-16T10:14:15.256Z,947.21
2022-09-16T10:16:41.633Z,947.35
2022-09-16T10:19:07.913Z,947.52
2022-09-16T10:21:34.272Z,947.62
2022-09-16T10:24:00.615Z,947.84
2022-09-16T10:26:26.938Z,948.19
2022-09-16T10:28:53.282Z,948.47
2022-09-16T10:31:19.643Z,948.50
2022-09-16T10:33:45.926Z,948.85
2022-09-16T10:36:12.292Z,949.13
2022-09-16T10:38:38.632Z,949.25
2022-09-16T10:41:04.948Z,949.27
2022-09-16T10:43:31.298Z,949.18
2022-09-16T10:45:57.674Z,949.30
2022-09-16T10:48:23.959Z,949.27
2022-09-16T10:50:50.278Z,949.19
2022-09-16T10:53:16.618Z,949.17
2022-09-16T10:55:42.954Z,949.11
2022-09-16T10:58:09.299Z,949.04
2022-09-16T11:00:35.630Z,948.78
2022-09-16T11:03:01.974Z,948.47
2022-09-16T11:05:28.288Z,948.36
2022-09-16T11:07:54.606Z,948.30
2022-09-16T11:10:20.961Z,948.14
2022-09-16T11:12:47.300Z,947.90
2022-09-16T11:15:13.638Z,947.81
2022-09-16T11:17:39.998Z,947.63
2022-09-16T11:20:06.335Z,947.51
2022-09-16T11:22:32.674Z,947.41
2022-09-16T11:24:59.018Z,947.43
2022-09-16T11:27:25.371Z,947.45
2022-09-16T11:29:51.700Z,947.24
2022-09-16T11:32:18.026Z,947.21
2022-09-16T11:34:44.340Z,947.22
2022-09-16T11:37:10.717Z,947.19
2022-09-16T11:39:37.029Z,947.11
2022-09-16T11:42:03.374Z,947.13
2022-09-16T11:44:29.717Z,947.09
2022-09-16T11:46:56.129Z,947.04
2022-09-16T11:49:22.393Z,947.01
2022-09-16T11:51:48.736Z,947.03
2022-09-16T11:54:15.089Z,947.05
2022-09-16T11:56:41.442Z,946.97
2022-09-16T11:59:07.752Z,946.90
2022-09-16T12:01:34.263Z,946.79
2022-09-16T12:04:00.431Z,946.82
2022-09-16T12:06:26.748Z,946.91
2022-09-16T12:08:53.128Z,947.00
2022-09-16T12:11:19.428Z,947.04
2022-09-16T12:13:45.772Z,947.01
2022-09-16T12:16:12.075Z,947.07
2022-09-16T12:18:38.420Z,947.05
2022-09-16T12:21:04.734Z,947.16
2022-09-16T12:23:31.076Z,947.04
2022-09-16T12:25:57.446Z,947.04
2022-09-16T12:28:23.761Z,946.98
2022-09-16T12:30:50.198Z,947.10
2022-09-16T12:33:16.456Z,947.08
2022-09-16T12:35:43.235Z,947.10
2022-09-16T12:38:09.556Z,947.07
2022-09-16T12:40:35.947Z,946.98
2022-09-16T12:43:02.227Z,947.13
2022-09-16T12:45:28.551Z,947.12
2022-09-16T12:47:54.924Z,947.25
2022-09-16T12:50:21.265Z,947.39
2022-09-16T12:52:47.601Z,947.47
2022-09-16T12:55:13.943Z,947.50
2022-09-16T12:57:40.257Z,947.53
2022-09-16T13:00:06.581Z,947.67
2022-09-16T13:02:33.026Z,947.74
2022-09-16T13:04:59.253Z,947.89
2022-09-16T13:07:25.609Z,947.93
2022-09-16T13:09:51.948Z,947.96
2022-09-16T13:14:44.645Z,948.08
2022-09-16T13:17:10.975Z,948.13
2022-09-16T13:19:37.303Z,948.18
2022-09-16T13:22:03.653Z,948.22
2022-09-16T13:24:29.999Z,948.23
2022-09-16T13:26:56.307Z,948.27
2022-09-16T13:29:22.658Z,948.24
2022-09-16T13:31:49.150Z,948.07
2022-09-16T13:34:15.355Z,948.12
2022-09-16T13:36:41.692Z,947.99
2022-09-16T13:39:08.033Z,947.93
2022-09-16T13:41:34.370Z,947.72
2022-09-16T13:44:00.697Z,947.59
2022-09-16T13:46:27.128Z,947.36
2022-09-16T13:48:53.474Z,946.97
2022-09-16T13:51:19.747Z,946.76
2022-09-16T13:53:46.072Z,946.74
2022-09-16T13:56:12.425Z,946.88
2022-09-16T13:58:38.777Z,946.81
2022-09-16T14:01:05.151Z,946.72
2022-09-16T14:03:31.537Z,946.72
2022-09-16T14:05:57.810Z,946.73
2022-09-16T14:08:24.154Z,946.73
2022-09-16T14:10:50.475Z,946.84
2022-09-16T14:13:16.842Z,946.88
2022-09-16T14:15:43.262Z,946.97
2022-09-16T14:18:09.532Z,947.21
2022-09-16T14:20:35.892Z,947.48
2022-09-16T14:23:02.232Z,947.52
2022-09-16T14:25:29.730Z,947.41
2022-09-16T14:27:54.960Z,947.24
2022-09-16T14:30:21.297Z,947.17
2022-09-16T14:32:47.613Z,947.11
2022-09-16T14:35:13.963Z,947.01
2022-09-16T14:37:40.282Z,947.03
2022-09-16T14:40:06.623Z,947.00
2022-09-16T14:42:32.924Z,946.93
2022-09-16T14:44:59.268Z,947.00
2022-09-16T14:47:39.755Z,946.94
2022-09-16T14:49:51.939Z,946.97
2022-09-16T14:52:18.258Z,947.01
2022-09-16T14:54:44.577Z,946.97
2022-09-16T14:57:10.925Z,946.93
2022-09-16T14:59:37.261Z,947.04
2022-09-16T15:02:03.641Z,947.15
2022-09-16T15:04:29.935Z,947.12
2022-09-16T15:06:58.102Z,947.12
2022-09-16T15:09:22.594Z,947.10
2022-09-16T15:11:49.325Z,947.09
2022-09-16T15:14:15.247Z,947.06
2022-09-16T15:16:41.591Z,947.10
2022-09-16T15:19:07.902Z,947.15
2022-09-16T15:21:34.255Z,947.11
2022-09-16T15:24:00.608Z,947.10
2022-09-16T15:26:26.936Z,946.77
2022-09-16T15:28:53.259Z,946.36
2022-09-16T15:31:19.787Z,946.13
2022-09-16T15:33:46.080Z,946.28
2022-09-16T15:36:12.422Z,946.26
2022-09-16T15:38:43.579Z,946.17
2022-09-16T15:41:05.310Z,946.18
2022-09-16T15:43:32.165Z,946.26
2022-09-16T15:45:58.560Z,946.30
2022-09-16T15:48:24.870Z,946.20
2022-09-16T15:50:51.221Z,946.16
2022-09-16T15:53:17.526Z,946.04
2022-09-16T15:55:44.037Z,946.03
2022-09-16T15:58:10.380Z,946.02
2022-09-16T16:00:36.928Z,946.01
2022-09-16T16:03:03.258Z,946.04
2022-09-16T16:05:29.563Z,946.02
2022-09-16T16:07:55.905Z,946.00
2022-09-16T16:10:22.383Z,946.02
2022-09-16T16:12:48.699Z,946.02
2022-09-16T16:15:15.119Z,945.97
2022-09-16T16:17:41.643Z,945.99
2022-09-16T16:20:08.043Z,945.92
2022-09-16T16:22:34.678Z,945.87
2022-09-16T16:25:00.722Z,945.82
2022-09-16T16:27:27.048Z,945.70
2022-09-16T16:29:53.379Z,945.58
2022-09-16T16:32:19.724Z,945.60
2022-09-16T16:34:46.049Z,945.49
2022-09-16T16:37:23.457Z,945.41
2022-09-16T16:39:38.747Z,945.42
2022-09-16T16:42:05.050Z,945.45
2022-09-16T16:44:31.376Z,945.38
2022-09-16T16:46:57.747Z,945.32
2022-09-16T16:49:24.051Z,945.41
2022-09-16T16:51:50.465Z,945.29
2022-09-16T16:54:16.784Z,945.31
2022-09-16T16:56:43.118Z,945.33
2022-09-16T16:59:09.592Z,945.25
2022-09-16T17:01:35.981Z,945.23
2022-09-16T17:04:02.267Z,945.13
2022-09-16T17:06:28.635Z,945.04
2022-09-16T17:08:55.003Z,945.14
2022-09-16T17:11:21.493Z,945.19
2022-09-16T17:13:47.949Z,945.29
2022-09-16T17:16:14.392Z,945.51
2022-09-16T17:18:40.648Z,945.38
2022-09-16T17:21:07.118Z,945.37
2022-09-16T17:23:33.493Z,945.39
2022-09-16T17:25:59.948Z,945.29
2022-09-16T17:28:26.273Z,945.23
2022-09-16T17:30:52.678Z,945.35
2022-09-16T17:33:19.204Z,945.40
2022-09-16T17:35:45.523Z,945.37
2022-09-16T17:38:11.947Z,945.34
2022-09-16T17:40:38.372Z,945.47
2022-09-16T17:43:04.604Z,945.46
2022-09-16T17:45:30.975Z,945.51
2022-09-16T17:47:57.318Z,945.44
2022-09-16T17:50:23.676Z,945.51
2022-09-16T17:52:49.987Z,945.57
2022-09-16T17:55:16.350Z,945.54
2022-09-16T17:57:42.693Z,945.60
2022-09-16T18:00:09.063Z,945.47
2022-09-16T18:02:35.433Z,945.31
2022-09-16T18:05:01.798Z,945.53
2022-09-16T18:07:28.020Z,945.51
2022-09-16T18:09:54.367Z,945.69
2022-09-16T18:12:20.699Z,945.59
2022-09-16T18:14:47.055Z,945.65
2022-09-16T18:17:13.455Z,945.55
2022-09-16T18:19:39.900Z,945.55
2022-09-16T18:22:06.215Z,945.53
2022-09-16T18:24:32.562Z,945.54
2022-09-16T18:26:58.936Z,945.55
2022-09-16T18:29:25.267Z,945.65
2022-09-16T18:31:51.609Z,945.65
2022-09-16T18:34:18.045Z,945.64
2022-09-16T18:36:44.433Z,945.65
2022-09-16T18:39:10.764Z,945.69
2022-09-16T18:41:37.072Z,945.69
2022-09-16T18:44:03.398Z,945.66
2022-09-16T18:46:29.957Z,945.60
2022-09-16T18:48:56.200Z,945.67
2022-09-16T18:51:22.554Z,945.54
2022-09-16T18:53:48.857Z,945.63
2022-09-16T18:56:15.206Z,945.66
2022-09-16T18:58:41.572Z,945.64
2022-09-16T19:01:07.936Z,945.59
2022-09-16T19:03:34.239Z,945.50
2022-09-16T19:06:00.596Z,945.48
2022-09-16T19:08:26.931Z,945.54
2022-09-16T19:10:53.257Z,945.49
2022-09-16T19:13:19.579Z,945.41
2022-09-16T19:15:45.911Z,945.40
2022-09-16T19:18:12.246Z,945.31
2022-09-16T19:20:38.573Z,945.30
2022-09-16T19:23:04.924Z,945.21
2022-09-16T19:25:31.241Z,945.17
2022-09-16T19:27:57.593Z,945.22
2022-09-16T19:30:23.906Z,945.32
2022-09-16T19:32:50.365Z,945.30
2022-09-16T19:35:16.612Z,945.23
2022-09-16T19:37:42.948Z,945.22
2022-09-16T19:40:09.409Z,945.20
2022-09-16T19:42:35.638Z,945.28
2022-09-16T19:45:01.964Z,945.27
2022-09-16T19:47:28.312Z,945.35
2022-09-16T19:49:54.633Z,945.33
2022-09-16T19:52:20.965Z,945.32
2022-09-16T19:54:47.286Z,945.25
2022-09-16T19:57:13.638Z,945.22
2022-09-16T19:59:39.972Z,945.23
2022-09-16T20:02:06.361Z,945.13
2022-09-16T20:04:32.690Z,945.05
2022-09-16T20:06:59.004Z,945.14
2022-09-16T20:09:25.366Z,945.13
2022-09-16T20:11:51.682Z,945.15
2022-09-16T20:14:18.008Z,945.12
2022-09-16T20:16:44.405Z,945.18
2022-09-16T20:19:10.658Z,945.19
2022-09-16T20:21:37.084Z,945.15
2022-09-16T20:24:03.404Z,945.21
2022-09-16T20:26:29.715Z,945.22
2022-09-16T20:28:56.061Z,945.28
2022-09-16T20:31:22.414Z,945.24
2022-09-16T20:33:48.733Z,945.20
2022-09-16T20:36:15.055Z,945.18
2022-09-16T20:38:41.389Z,945.27
2022-09-16T20:41:07.775Z,945.25
2022-09-16T20:43:34.081Z,945.27
2022-09-16T20:46:00.452Z,945.28
2022-09-16T20:48:26.765Z,945.30
2022-09-16T20:50:53.102Z,945.35
2022-09-16T20:53:19.443Z,945.33
2022-09-16T20:55:45.830Z,945.42
2022-09-16T20:58:12.104Z,945.42
2022-09-16T21:00:38.484Z,945.45
2022-09-16T21:03:04.788Z,945.33
2022-09-16T21:05:31.126Z,945.20
2022-09-16T21:07:57.507Z,945.17
2022-09-16T21:10:23.831Z,945.18
2022-09-16T21:12:50.159Z,945.14
2022-09-16T21:15:16.489Z,945.08
2022-09-16T21:17:42.822Z,945.02
2022-09-16T21:20:09.182Z,945.06
2022-09-16T21:22:35.518Z,945.11
2022-09-16T21:25:01.834Z,945.03
2022-09-16T21:27:28.173Z,944.87
2022-09-16T21:29:54.515Z,944.85
2022-09-16T21:32:20.828Z,944.94
2022-09-16T21:34:47.147Z,944.87
2022-09-16T21:37:13.516Z,944.79
2022-09-16T21:39:39.847Z,944.74
2022-09-16T21:42:06.159Z,944.78
2022-09-16T21:44:32.520Z,944.70
2022-09-16T21:46:58.847Z,944.58
2022-09-16T21:49:25.173Z,944.59
2022-09-16T21:51:51.555Z,944.69
2022-09-16T21:54:20.121Z,944.74
2022-09-16T21:56:44.197Z,944.81
2022-09-16T21:59:10.547Z,944.83
2022-09-16T22:01:36.934Z,944.92
2022-09-16T22:04:03.206Z,944.79
2022-09-16T22:06:29.539Z,944.84
2022-09-16T22:08:55.848Z,944.79
2022-09-16T22:11:22.180Z,944.69
2022-09-16T22:13:48.510Z,944.62
2022-09-16T22:16:14.993Z,944.51
2022-09-16T22:18:41.176Z,944.62
2022-09-16T22:21:07.480Z,944.57
2022-09-16T22:23:33.810Z,944.53
2022-09-16T22:26:00.159Z,944.68
2022-09-16T22:28:26.524Z,944.57
2022-09-16T22:30:52.836Z,944.57
2022-09-16T22:33:19.118Z,944.59
2022-09-16T22:35:45.420Z,944.57
2022-09-16T22:38:11.757Z,944.60
2022-09-16T22:40:38.105Z,944.50
2022-09-16T22:43:04.437Z,944.48
2022-09-16T22:45:30.761Z,944.51
2022-09-16T22:47:57.094Z,944.46
2022-09-16T22:50:23.424Z,944.55
2022-09-16T22:52:49.753Z,944.55
2022-09-16T22:55:16.098Z,944.47
2022-09-16T22:57:42.410Z,944.70
2022-09-16T23:00:08.740Z,944.53
2022-09-16T23:02:35.054Z,944.46
2022-09-16T23:05:01.360Z,944.57
2022-09-16T23:07:27.677Z,944.55
2022-09-16T23:09:54.001Z,944.54
2022-09-16T23:12:20.333Z,944.52
2022-09-16T23:14:46.639Z,944.59
2022-09-16T23:17:12.972Z,944.45
2022-09-16T23:19:39.318Z,944.40
2022-09-16T23:22:05.627Z,944.35
2022-09-16T23:24:31.957Z,944.26
2022-09-16T23:26:58.313Z,944.36
2022-09-16T23:29:24.616Z,944.39
2022-09-16T23:31:50.947Z,944.37
2022-09-16T23:34:17.310Z,944.23
2022-09-16T23:36:43.632Z,944.18
2022-09-16T23:39:09.963Z,944.13
2022-09-16T23:41:36.296Z,944.05
2022-09-16T23:44:02.618Z,944.02
2022-09-16T23:46:29.003Z,944.00
2022-09-16T23:48:55.303Z,944.00
2022-09-16T23:51:24.731Z,943.86
2022-09-16T23:53:47.920Z,943.81
2022-09-16T23:56:14.254Z,943.84
2022-09-16T23:58:40.590Z,943.91
